Latest Weather Observations for Mullion

IDN60801

Issued at 2:23 am EDT Friday 29 January 2021 (issued every 10 minutes, with the page automatically refreshed every 10 minutes)

About weather observations | Map of weather stations | Latest weather observations for NSW | Other Formats
Station Details ID: 250070 Name: MULLION (PCS) Lat: -35.11 Lon: 148.85 Height: 750.0 m

Portable automatic weather stations (PAWS) are operated by other organisations, such as Fire and Emergency Services, and are included here by agreement. Portable stations may be deployed to a location for a short period and their location may be subject to change without notice. Wind observations from these stations are provided from heights of either three (3) or ten (10) metres above ground level (AGL).

Data from the previous 72 hours. | See also: Recent months for locations in New South Wales
Date/Time
EDT
Temp
°C
App
Temp
°C
Dew
Point
°C
Rel
Hum
%
Delta-T
°C
Wind Press
QNH
hPa
Press
MSL
hPa
Rain since
9am
mm
Dir  Spd
km/h
Gust
km/h
Spd
kts
Gust
kts
29/02:10am 12.0 - 12.1 - - SE 37 39 20 21 1021.0 - 13.8
29/02:00am 11.9 - 12.1 - - SE 39 43 21 23 1020.9 - 13.8
29/01:50am 12.0 - 12.1 - - SE 41 41 22 22 1021.0 - 13.8
29/01:40am 11.9 - 12.1 - - SE 37 41 20 22 1021.1 - 13.6
29/01:30am 11.9 - 12.1 - - SE 41 43 22 23 1021.3 - 13.6
29/01:20am 11.9 - 12.1 - - SE 43 46 23 25 1021.2 - 13.4
29/01:10am 11.9 - 12.0 - - SE 44 46 24 25 1021.3 - 13.4
29/01:00am 11.9 - 12.0 - - SE 43 44 23 24 1021.4 - 13.4
29/12:50am 11.8 - 12.0 - - SE 43 44 23 24 1021.7 - 13.2
29/12:40am 11.8 - 12.0 - - SE 44 50 24 27 1021.5 - 13.0
29/12:30am 11.9 - 12.0 - - SE 46 50 25 27 1021.4 - 12.8
29/12:20am 11.8 - 12.0 - - SE 44 50 24 27 1021.9 - 12.6
29/12:10am 11.8 - 12.0 - - SE 46 48 25 26 1021.7 - 12.6
29/12:00am 11.8 - 12.0 - - SE 46 48 25 26 1021.5 - 12.4
 
Date/Time
EDT
Temp
°C
App
Temp
°C
Dew
Point
°C
Rel
Hum
%
Delta-T
°C
Wind Press
QNH
hPa
Press
MSL
hPa
Rain since
9am
mm
Dir  Spd
km/h
Gust
km/h
Spd
kts
Gust
kts
28/11:50pm 11.8 - 12.0 - - SE 44 46 24 25 1021.8 - 12.4
28/11:40pm 11.9 - 12.1 - - SE 44 44 24 24 1022.2 - 12.2
28/11:30pm 11.9 - 12.1 - - SE 44 44 24 24 1022.1 - 12.2
28/11:20pm 12.0 - 12.2 - - ESE 44 46 24 25 1022.2 - 11.8
28/11:10pm 12.1 - 12.3 - - SE 43 44 23 24 1022.0 - 11.6
28/11:00pm 12.2 - 12.3 - - ESE 43 46 23 25 1022.5 - 11.6
28/10:50pm 12.2 - 12.4 - - ESE 44 44 24 24 1022.6 - 11.4
28/10:40pm 12.2 - 12.4 - - ESE 41 43 22 23 1022.9 - 11.2
28/10:30pm 12.2 - 12.4 - - ESE 39 41 21 22 1023.0 - 11.2
28/10:20pm 12.3 - 12.5 - - SE 41 43 22 23 1022.8 - 11.0
28/10:10pm 12.3 - 12.5 - - SE 39 41 21 22 1023.2 - 11.0
28/10:00pm 12.3 - 12.5 - - SE 39 41 21 22 1023.2 - 10.8
28/09:50pm 12.3 - 12.6 - - SE 37 41 20 22 1023.2 - 10.8
28/09:40pm 12.4 - 12.6 - - SE 37 39 20 21 1023.1 - 10.8
28/09:30pm 12.4 - 12.6 - - SE 35 37 19 20 1022.8 - 10.6
28/09:20pm 12.4 - 12.7 - - SE 37 39 20 21 1023.0 - 10.6
28/09:10pm 12.4 - 12.7 - - SE 39 41 21 22 1022.8 - 10.6
28/09:00pm 12.4 - 12.6 - - SE 37 39 20 21 1022.7 - 10.4
28/08:50pm 12.3 - 12.6 - - SE 35 37 19 20 1022.9 - 10.4
28/08:40pm 12.3 - 12.6 - - SE 37 39 20 21 1022.8 - 10.4
28/08:30pm 12.4 - 12.7 - - SE 37 39 20 21 1022.6 - 10.4
28/08:20pm 12.5 - 12.8 - - SE 41 43 22 23 1022.6 - 10.4
28/08:10pm 12.6 - 12.9 - - SE 39 44 21 24 1022.5 - 10.4
28/08:00pm 12.7 - 13.0 - - SE 43 44 23 24 1022.0 - 10.2
28/07:50pm 12.8 - 13.1 - - SE 39 41 21 22 1022.3 - 10.2
28/07:40pm 12.8 - 13.2 - - ESE 43 46 23 25 1022.1 - 10.2
28/07:30pm 12.8 - 13.2 - - ESE 46 50 25 27 1021.4 - 10.2
28/07:20pm 12.8 - 13.2 - - ESE 50 52 27 28 1021.2 - 10.2
28/07:10pm 12.8 - 13.3 - - ESE 54 56 29 30 1021.1 - 10.2
28/07:00pm 12.8 - 13.3 - - ESE 50 56 27 30 1020.9 - 10.2
28/06:50pm 12.8 - 13.4 - - ESE 46 48 25 26 1021.1 - 10.2
28/06:40pm 12.8 - 13.4 - - ESE 48 50 26 27 1021.3 - 10.2
28/06:30pm 12.7 - 13.3 - - ESE 48 54 26 29 1020.9 - 10.2
28/06:20pm 12.7 - 13.4 - - SE 48 54 26 29 1020.6 - 10.2
28/06:10pm 12.7 - 13.4 - - SE 46 48 25 26 1021.1 - 10.0
28/06:00pm 12.7 - 13.3 - - ESE 44 50 24 27 1021.1 - 10.0
28/05:50pm 12.8 - 13.3 - - ESE 48 52 26 28 1021.3 - 9.8
28/05:40pm 12.8 - 13.4 - - ESE 44 50 24 27 1020.6 - 9.8
28/05:30pm 12.8 - 13.4 - - ESE 44 48 24 26 1021.8 - 9.4
28/05:20pm 12.9 - 13.5 - - ESE 46 50 25 27 1021.4 - 9.2
28/05:10pm 12.9 - 13.5 - - ESE 50 54 27 29 1021.5 - 9.0
28/05:00pm 12.9 - 13.6 - - ESE 44 46 24 25 1021.9 - 8.6
28/04:50pm 12.9 - 13.6 - - ESE 48 50 26 27 1022.3 - 8.0
28/04:40pm 12.9 - 13.6 - - ESE 46 48 25 26 1022.0 - 7.8
28/04:30pm 12.9 - 13.6 - - ESE 46 50 25 27 1022.1 - 7.4
28/04:20pm 13.4 - 14.1 - - ESE 41 48 22 26 1021.8 - 7.2
28/04:10pm 13.5 - 14.2 - - ESE 39 41 21 22 1022.5 - 6.8
28/04:00pm 13.4 - 14.2 - - ESE 39 43 21 23 1022.4 - 6.6
28/03:50pm 13.5 - 14.3 - - SE 35 39 19 21 1022.4 - 6.2
28/03:40pm 13.6 - 14.3 - - ESE 35 39 19 21 1023.0 - 6.0
28/03:30pm 13.5 - 14.2 - - ESE 39 41 21 22 1022.7 - 5.8
28/03:20pm 13.4 - 14.1 - - ESE 37 39 20 21 1023.1 - 5.4
28/03:10pm 13.4 - 14.0 - - ESE 37 43 20 23 1023.2 - 5.2
28/03:00pm 13.3 - 13.9 - - ESE 41 43 22 23 1022.6 - 5.0
28/02:50pm 13.3 - 14.0 - - SE 41 43 22 23 1023.1 - 5.0
28/02:40pm 13.3 - 14.0 - - SE 39 41 21 22 1022.8 - 4.8
28/02:30pm 13.2 - 13.9 - - SE 39 41 21 22 1023.0 - 4.2
28/02:20pm 13.2 - 13.8 - - SE 39 43 21 23 1023.1 - 3.8
28/02:10pm 13.2 - 13.8 - - SE 41 41 22 22 1022.9 - 3.2
28/02:00pm 13.3 - 13.9 - - SE 37 41 20 22 1023.1 - 2.6
28/01:50pm 13.4 - 14.0 - - SE 41 44 22 24 1023.2 - 2.2
28/01:40pm 13.5 - 14.2 - - ESE 39 41 21 22 1023.0 - 1.8
28/01:30pm 13.6 - 13.9 - - ESE 41 44 22 24 1023.2 - 1.2
28/01:20pm 13.9 6.5 13.2 96 0.4 ESE 44 46 24 25 1022.9 - 0.8
28/01:10pm 14.1 6.3 13.0 93 0.6 ESE 46 48 25 26 1023.1 - 0.4
28/01:00pm 14.2 5.3 13.1 93 0.6 ESE 52 56 28 30 1022.8 - 0.2
28/12:50pm 14.4 4.7 13.0 91 0.8 E 56 57 30 31 1022.2 - 0.2
28/12:40pm 15.0 6.0 12.8 87 1.3 ESE 52 54 28 29 1022.4 - 0.0
28/12:30pm 15.3 5.8 12.5 83 1.6 ESE 54 57 29 31 1021.9 - 0.0
28/12:20pm 15.8 5.9 12.4 80 1.9 ESE 56 61 30 33 1022.5 - 0.0
28/12:10pm 16.2 6.1 12.2 77 2.3 ESE 57 63 31 34 1022.2 - 0.0
28/12:00pm 16.3 5.7 12.1 76 2.4 ESE 59 63 32 34 1021.6 - 0.0
28/11:50am 16.1 5.0 11.7 75 2.5 ESE 61 69 33 37 1021.7 - 0.0
28/11:40am 16.1 5.8 11.8 75 2.4 ESE 57 65 31 35 1021.8 - 0.0
28/11:30am 16.1 5.1 12.0 76 2.3 ESE 61 67 33 36 1022.2 - 0.0
28/11:20am 16.3 4.9 11.9 75 2.5 ESE 63 69 34 37 1021.7 - 0.0
28/11:10am 16.3 4.6 12.0 75 2.4 ESE 65 70 35 38 1021.6 - 0.0
28/11:00am 16.5 7.7 12.1 75 2.5 ESE 50 57 27 31 1022.2 - 0.0
28/10:50am 16.6 9.2 12.9 79 2.1 ESE 44 48 24 26 1022.7 - 0.0
28/10:40am 16.0 7.0 12.7 81 1.9 ESE 52 57 28 31 1022.5 - 0.0
28/10:30am 16.0 8.1 12.8 81 1.8 ESE 46 50 25 27 1022.4 - 0.0
28/10:20am 16.1 8.2 12.8 81 1.9 SE 46 50 25 27 1022.2 - 0.0
28/10:10am 16.0 7.3 12.7 81 1.9 SE 50 54 27 29 1022.1 - 0.0
28/10:00am 16.0 7.3 12.6 80 1.9 SE 50 56 27 30 1022.2 - 0.0
28/09:50am 15.6 6.9 12.4 81 1.8 SE 50 54 27 29 1022.0 - 0.0
28/09:40am 15.7 7.8 12.6 82 1.8 SE 46 50 25 27 1022.0 - 0.0
28/09:30am 15.5 6.4 12.5 82 1.7 SE 52 56 28 30 1021.6 - 0.0
28/09:20am 15.4 6.6 12.3 82 1.8 SE 50 54 27 29 1021.8 - 0.0
28/09:10am 15.2 5.6 12.1 82 1.8 SE 54 56 29 30 1021.7 - 0.0
28/09:00am 15.1 6.6 12.1 82 1.7 ESE 48 52 26 28 1021.8 - 0.0
28/08:50am 15.0 6.1 11.9 82 1.7 SE 50 54 27 29 1021.4 - 0.0
28/08:40am 14.9 5.6 11.9 82 1.7 SE 52 57 28 31 1021.5 - 0.0
28/08:30am 14.9 5.6 12.0 83 1.6 SE 52 54 28 29 1022.0 - 0.0
28/08:20am 14.9 6.4 12.1 83 1.6 SE 48 52 26 28 1021.7 - 0.0
28/08:10am 14.9 6.8 12.2 84 1.5 ESE 46 48 25 26 1021.6 - 0.0
28/08:00am 14.9 6.1 12.1 83 1.6 SE 50 56 27 30 1021.7 - 0.0
28/07:50am 14.8 6.3 12.1 84 1.5 ESE 48 52 26 28 1021.5 - 0.0
28/07:40am 14.8 6.1 12.5 86 1.3 ESE 50 56 27 30 1021.6 - 0.0
28/07:30am 14.7 7.3 12.5 87 1.2 ESE 43 46 23 25 1021.1 - 0.0
28/07:20am 14.5 6.9 12.5 88 1.1 ESE 44 46 24 25 1021.3 - 0.0
28/07:10am 14.3 6.9 12.5 89 1.0 ESE 43 46 23 25 1021.2 - 0.0
28/07:00am 14.3 6.9 12.5 89 1.0 ESE 43 44 23 24 1021.2 - 0.0
28/06:50am 14.2 6.6 12.5 89 1.0 ESE 44 48 24 26 1021.0 - 0.0
28/06:40am 14.2 5.9 12.5 89 1.0 ESE 48 50 26 27 1020.4 - 0.0
28/06:30am 14.1 4.9 12.3 89 1.0 ESE 52 56 28 30 1020.3 - 0.0
28/06:20am 14.1 3.6 12.4 89 1.0 ESE 59 65 32 35 1020.0 - 0.0
28/06:10am 14.2 3.4 12.4 89 1.0 ESE 61 67 33 36 1019.3 - 0.0
28/06:00am 14.4 2.8 12.3 87 1.2 ESE 65 67 35 36 1018.8 - 0.0
28/05:50am 14.5 3.6 12.1 85 1.4 ESE 61 63 33 34 1019.3 - 0.0
28/05:40am 14.6 4.6 12.2 85 1.4 ESE 56 61 30 33 1019.5 - 0.0
28/05:30am 14.6 4.6 12.2 85 1.4 ESE 56 61 30 33 1019.5 - 0.0
28/05:20am 14.6 4.1 12.2 85 1.4 ESE 59 63 32 34 1019.2 - 0.0
28/05:10am 14.6 3.7 12.3 86 1.3 ESE 61 65 33 35 1018.9 - 0.0
28/05:00am 14.7 3.8 12.3 85 1.4 ESE 61 63 33 34 1019.0 - 0.0
28/04:50am 14.8 4.0 12.4 85 1.4 ESE 61 69 33 37 1018.8 - 0.0
28/04:40am 14.7 4.8 12.4 86 1.3 ESE 56 59 30 32 1018.7 - 0.0
28/04:30am 14.5 5.1 12.7 89 1.0 ESE 54 57 29 31 1019.2 - 0.0
28/04:20am 14.5 4.7 12.6 88 1.1 ESE 56 59 30 32 1019.1 - 0.0
28/04:10am 14.5 4.8 13.0 91 0.9 ESE 56 59 30 32 1018.8 - 0.0
28/04:00am 14.5 4.6 13.0 91 0.9 ESE 57 61 31 33 1019.0 - 0.0
28/03:50am 14.5 4.8 13.1 91 0.8 ESE 56 57 30 31 1019.2 - 0.0
28/03:40am 14.5 4.8 13.1 91 0.8 ESE 56 59 30 32 1018.6 - 0.0
28/03:30am 14.6 3.6 13.1 91 0.9 ESE 63 69 34 37 1018.9 - 0.0
28/03:20am 14.7 3.7 13.1 90 0.9 ESE 63 67 34 36 1017.9 - 0.0
28/03:10am 15.0 5.1 12.9 87 1.2 ESE 57 63 31 34 1018.7 - 0.0
28/03:00am 15.1 5.1 12.8 86 1.3 ESE 57 61 31 33 1018.6 - 0.0
28/02:50am 15.2 5.8 12.7 85 1.4 ESE 54 63 29 34 1018.6 - 0.0
28/02:40am 15.2 7.9 12.8 85 1.4 ESE 43 56 23 30 1019.4 - 0.0
28/02:30am 15.2 8.0 13.0 87 1.3 ESE 43 56 23 30 1020.2 - 0.0
28/02:20am 15.3 6.7 12.9 85 1.4 ESE 50 54 27 29 1019.4 - 0.0
28/02:10am 15.3 7.5 12.9 85 1.4 ESE 46 54 25 29 1019.6 - 0.0
28/02:00am 15.3 7.9 13.0 86 1.3 ESE 44 46 24 25 1020.0 - 0.0
28/01:50am 15.3 8.0 12.9 85 1.4 ESE 43 46 23 25 1019.8 - 0.0
28/01:40am 15.3 9.2 12.9 85 1.4 ESE 37 41 20 22 1020.2 - 0.0
28/01:30am 15.3 10.0 13.0 86 1.3 ESE 33 37 18 20 1020.6 - 0.0
28/01:20am 15.4 10.1 13.0 85 1.4 ESE 33 37 18 20 1020.8 - 0.0
28/01:10am 15.5 9.1 13.1 85 1.4 ESE 39 41 21 22 1020.8 - 0.0
28/01:00am 15.6 7.4 13.0 84 1.5 ESE 48 54 26 29 1020.4 - 0.0
28/12:50am 15.6 7.8 13.0 84 1.5 ESE 46 50 25 27 1019.8 - 0.0
28/12:40am 15.6 8.2 13.0 84 1.5 ESE 44 50 24 27 1020.2 - 0.0
28/12:30am 15.8 7.2 13.0 83 1.6 ESE 50 56 27 30 1020.1 - 0.0
28/12:20am 15.8 8.4 13.1 84 1.6 SE 44 46 24 25 1020.1 - 0.0
28/12:10am 15.9 8.1 13.0 83 1.7 ESE 46 50 25 27 1020.1 - 0.0
28/12:00am 15.8 8.0 13.0 83 1.6 ESE 46 46 25 25 1019.6 - 0.0
 
Date/Time
EDT
Temp
°C
App
Temp
°C
Dew
Point
°C
Rel
Hum
%
Delta-T
°C
Wind Press
QNH
hPa
Press
MSL
hPa
Rain since
9am
mm
Dir  Spd
km/h
Gust
km/h
Spd
kts
Gust
kts
27/11:50pm 15.9 8.1 13.0 83 1.7 SE 46 50 25 27 1019.4 - 0.0
27/11:40pm 15.9 8.6 12.8 82 1.8 SE 43 46 23 25 1019.5 - 0.0
27/11:30pm 15.9 8.4 12.7 81 1.8 SE 44 46 24 25 1019.9 - 0.0
27/11:20pm 15.9 8.6 12.9 82 1.7 ESE 43 44 23 24 1019.8 - 0.0
27/11:10pm 16.0 8.2 12.9 82 1.8 ESE 46 48 25 26 1020.0 - 0.0
27/11:00pm 16.0 8.1 12.8 81 1.8 SE 46 50 25 27 1019.8 - 0.0
27/10:50pm 16.0 7.7 12.5 80 2.0 SE 48 56 26 30 1018.8 - 0.0
27/10:40pm 16.0 7.6 12.2 78 2.2 SE 48 54 26 29 1019.0 - 0.0
27/10:30pm 16.1 8.3 11.9 76 2.4 SE 44 48 24 26 1019.5 - 0.0
27/10:20pm 16.1 8.3 11.9 76 2.4 SE 44 46 24 25 1019.9 - 0.0
27/10:10pm 16.1 8.3 11.9 76 2.4 SE 44 48 24 26 1019.7 - 0.0
27/10:00pm 16.1 7.5 11.7 75 2.5 SE 48 54 26 29 1019.3 - 0.0
27/09:50pm 16.1 7.8 11.5 74 2.6 SE 46 48 25 26 1019.3 - 0.0
27/09:40pm 16.1 7.7 11.2 72 2.7 SE 46 50 25 27 1019.3 - 0.0
27/09:30pm 16.1 8.1 11.1 72 2.8 SE 44 46 24 25 1019.0 - 0.0
27/09:20pm 16.1 8.1 11.2 72 2.7 SE 44 46 24 25 1019.0 - 0.0
27/09:10pm 16.1 8.3 11.3 73 2.7 SE 43 48 23 26 1018.8 - 0.0
27/09:00pm 16.1 7.4 11.2 72 2.7 SE 48 52 26 28 1018.5 - 0.0
27/08:50pm 16.1 8.2 11.4 73 2.6 SE 44 46 24 25 1018.3 - 0.0
27/08:40pm 16.1 7.8 11.4 73 2.6 SE 46 50 25 27 1018.4 - 0.0
27/08:30pm 16.2 7.9 11.4 73 2.7 SE 46 50 25 27 1018.3 - 0.0
27/08:20pm 16.2 6.8 11.4 73 2.7 SE 52 57 28 31 1018.3 - 0.0
27/08:10pm 16.3 7.5 11.1 71 2.9 SE 48 52 26 28 1017.6 - 0.0
27/08:00pm 16.4 8.5 10.7 69 3.2 SE 43 46 23 25 1018.3 - 0.0
27/07:50pm 16.5 8.3 10.4 67 3.4 ESE 44 48 24 26 1018.2 - 0.0
27/07:40pm 16.6 8.6 10.4 67 3.4 SE 43 46 23 25 1018.4 - 0.0
27/07:30pm 16.7 9.2 9.6 63 3.9 ESE 39 43 21 23 1018.3 - 0.0
27/07:20pm 16.8 8.1 9.9 64 3.8 ESE 46 48 25 26 1018.1 - 0.0
27/07:10pm 16.9 8.6 9.3 61 4.1 ESE 43 46 23 25 1017.8 - 0.0
27/07:00pm 17.0 8.5 9.4 61 4.1 ESE 44 46 24 25 1017.8 - 0.0
27/06:50pm 17.0 8.7 9.2 60 4.2 ESE 43 46 23 25 1017.4 - 0.0
27/06:40pm 17.1 9.2 9.2 59 4.3 ESE 41 44 22 24 1017.6 - 0.0
27/06:30pm 17.1 8.1 9.0 59 4.4 ESE 46 46 25 25 1017.3 - 0.0
27/06:20pm 17.2 8.2 8.9 58 4.5 ESE 46 50 25 27 1017.1 - 0.0
27/06:10pm 17.4 8.2 8.2 54 4.9 E 46 48 25 26 1016.8 - 0.0
27/06:00pm 17.3 8.5 8.1 54 4.9 ESE 44 50 24 27 1017.1 - 0.0
27/05:50pm 17.3 8.8 8.4 56 4.7 E 43 46 23 25 1017.4 - 0.0
27/05:40pm 17.2 9.7 10.9 66 3.5 E 41 46 22 25 1017.2 - 0.0
27/05:30pm 16.9 10.4 12.9 77 2.3 - 39 43 21 23 1017.4 - 0.0
27/05:20pm 16.6 10.2 13.3 81 1.9 E 39 41 21 22 1017.0 - 0.0
27/05:10pm 16.5 10.8 14.2 86 1.4 E 37 39 20 21 1017.1 - 0.0
27/05:00pm 16.3 11.2 14.7 90 1.0 E 35 37 19 20 1017.4 - 0.0
27/04:50pm 16.4 10.9 14.7 90 1.0 E 37 39 20 21 1017.3 - 0.0
27/04:40pm 16.3 10.7 14.5 89 1.1 E 37 37 20 20 1017.2 - 0.0
27/04:30pm 16.3 10.7 14.4 88 1.1 E 37 39 20 21 1017.1 - 0.0
27/04:20pm 16.6 11.4 14.5 87 1.2 E 35 37 19 20 1017.2 - 0.0
27/04:10pm 16.8 11.2 14.4 86 1.4 E 37 41 20 22 1017.1 - 0.0
27/04:00pm 16.8 10.7 14.2 85 1.5 E 39 41 21 22 1016.9 - 0.0
27/03:50pm 16.7 10.7 14.5 87 1.3 E 39 41 21 22 1016.9 - 0.0
27/03:40pm 16.6 10.6 14.5 87 1.2 E 39 41 21 22 1016.9 - 0.0
27/03:30pm 16.7 11.8 15.2 91 0.9 E 35 39 19 21 1017.1 - 0.0
27/03:20pm 16.6 10.4 14.8 89 1.1 E 41 43 22 23 1016.8 - 0.0
27/03:10pm 16.7 11.3 15.0 90 1.0 - 37 39 20 21 1016.9 - 0.0
27/03:00pm 16.8 11.4 15.0 89 1.1 E 37 41 20 22 1017.2 - 0.0
27/02:50pm 16.8 11.8 15.0 89 1.1 ESE 35 37 19 20 1016.7 - 0.0
27/02:40pm 16.7 11.6 14.8 88 1.1 E 35 37 19 20 1017.2 - 0.0
27/02:30pm 16.7 11.9 14.7 88 1.2 E 33 35 18 19 1017.3 - 0.0
27/02:20pm 16.7 11.2 14.6 87 1.2 ESE 37 39 20 21 1016.9 - 0.0
27/02:10pm 16.6 11.2 15.0 90 1.0 - 37 39 20 21 1016.9 - 0.0
27/02:00pm 16.8 11.1 15.3 91 0.9 ESE 39 43 21 23 1017.0 - 0.0
27/01:50pm 16.6 10.5 15.1 91 0.9 ESE 41 43 22 23 1016.5 - 0.0
27/01:40pm 16.6 10.5 15.3 92 0.8 ESE 41 44 22 24 1016.6 - 0.0
27/01:30pm 16.6 11.5 15.7 94 0.5 ESE 37 39 20 21 1016.8 - 0.0
27/01:20pm 16.5 10.8 15.2 92 0.8 ESE 39 41 21 22 1016.5 - 0.0
27/01:10pm 16.5 11.6 15.3 93 0.7 ESE 35 39 19 21 1016.6 - 0.0
27/01:00pm 16.4 10.8 15.4 94 0.6 ESE 39 41 21 22 1016.9 - 0.0
27/12:50pm 16.4 11.6 15.5 94 0.5 ESE 35 39 19 21 1016.4 - 0.0
27/12:40pm 16.4 11.5 15.4 94 0.6 ESE 35 37 19 20 1016.5 - 0.0
27/12:30pm 16.1 - 16.3 - - ESE 30 32 16 17 1016.7 - 0.0
27/12:20pm 15.9 - 16.3 - - SE 30 33 16 18 1016.6 - 0.0
27/12:10pm 15.8 - 16.4 - - ESE 30 32 16 17 1016.7 - 0.0
27/12:00pm 15.7 - 16.3 - - ESE 30 32 16 17 1016.4 - 0.0
27/11:50am 15.6 - 16.3 - - ESE 28 30 15 16 1016.3 - 0.0
27/11:40am 15.5 - 16.1 - - ESE 28 30 15 16 1016.5 - 0.0
27/11:30am 15.5 - 16.0 - - ESE 30 33 16 18 1016.2 - 0.0
27/11:20am 15.3 - 15.8 - - SE 32 33 17 18 1016.0 - 0.0
27/11:10am 15.2 - 15.6 - - SE 32 35 17 19 1016.2 - 0.0
27/11:00am 15.2 - 15.6 - - SE 35 37 19 20 1016.1 - 0.0
27/10:50am 15.0 - 15.4 - - SE 35 37 19 20 1015.7 - 0.0
27/10:40am 14.9 - 15.3 - - SE 37 41 20 22 1015.6 - 0.0
27/10:30am 14.9 - 15.3 - - SE 35 39 19 21 1015.5 - 0.0
27/10:20am 14.8 - 15.1 - - SE 37 39 20 21 1015.4 - 0.0
27/10:10am 14.8 - 15.2 - - SE 37 39 20 21 1015.5 - 0.0
27/10:00am 14.8 - 15.1 - - SE 39 41 21 22 1015.3 - 4.8
27/09:50am 14.8 - 15.1 - - SE 35 39 19 21 1015.4 - 4.8
27/09:40am 14.9 - 15.2 - - SE 33 37 18 20 1015.2 - 4.8
27/09:30am 15.0 - 15.3 - - SE 35 37 19 20 1015.0 - 4.8
27/09:20am 15.0 - 15.2 - - SE 35 37 19 20 1014.9 - 4.8
27/09:10am 15.0 - 15.2 - - SE 35 37 19 20 1014.9 - 4.8
27/09:00am 15.0 - 15.2 - - SE 35 37 19 20 1014.8 - 4.8
27/08:50am 15.0 - 15.2 - - SE 32 35 17 19 1014.5 - 4.8
27/08:40am 15.0 - 15.3 - - SE 33 35 18 19 1014.8 - 4.8
27/08:30am 15.1 - 15.3 - - SE 33 35 18 19 1014.5 - 4.8
27/08:20am 15.3 - 15.4 - - SE 35 37 19 20 1014.2 - 4.8
27/08:10am 15.3 - 15.5 - - SE 33 35 18 19 1014.0 - 4.8
27/08:00am 15.5 - 15.7 - - SE 33 35 18 19 1014.0 - 4.8
27/07:50am 15.6 - 15.8 - - ESE 37 41 20 22 1013.7 - 4.8
27/07:40am 15.8 - 16.0 - - ESE 35 37 19 20 1013.5 - 4.8
27/07:30am 15.8 - 16.0 - - ESE 37 39 20 21 1013.2 - 4.8
27/07:20am 15.9 - 16.1 - - ESE 37 41 20 22 1013.0 - 4.8
27/07:10am 16.1 - 16.3 - - ESE 35 37 19 20 1012.6 - 4.8
27/07:00am 16.1 - 16.3 - - SE 32 33 17 18 1012.8 - 4.6
27/06:50am 16.0 - 16.2 - - SE 33 35 18 19 1012.5 - 4.6
27/06:40am 16.1 - 16.3 - - SE 33 37 18 20 1012.3 - 4.6
27/06:30am 16.2 - 16.4 - - SE 35 37 19 20 1012.2 - 4.6
27/06:20am 16.2 - 16.4 - - SE 39 41 21 22 1011.9 - 4.6
27/06:10am 16.3 - 16.5 - - SE 35 37 19 20 1011.4 - 4.6
27/06:00am 16.4 - 16.5 - - SE 35 37 19 20 1011.4 - 4.6
27/05:50am 16.4 - 16.6 - - SE 37 37 20 20 1011.0 - 4.6
27/05:40am 16.6 - 16.8 - - SE 33 37 18 20 1010.9 - 4.6
27/05:30am 16.7 - 16.9 - - SE 33 35 18 19 1010.8 - 4.6
27/05:20am 16.7 - 16.9 - - SE 33 35 18 19 1010.6 - 4.6
27/05:10am 16.9 - 17.1 - - SE 32 35 17 19 1010.5 - 4.6
27/05:00am 17.1 - 17.2 - - SE 35 39 19 21 1010.3 - 4.6
27/04:50am 17.3 - 17.5 - - SE 35 39 19 21 1010.1 - 4.6
27/04:40am 17.5 - 17.7 - - SE 35 37 19 20 1010.1 - 4.6
27/04:30am 17.9 - 18.1 - - SSE 22 28 12 15 1010.1 - 4.6
27/04:20am 17.9 - 18.1 - - SSE 24 26 13 14 1010.1 - 4.6
27/04:10am 17.9 - 18.1 - - SSE 26 26 14 14 1010.0 - 4.6
27/04:00am 18.0 - 18.2 - - SSE 22 24 12 13 1009.9 - 4.6
27/03:50am 18.0 - 18.2 - - SSE 26 26 14 14 1009.8 - 4.6
27/03:40am 17.9 - 18.1 - - SSE 30 30 16 16 1009.7 - 4.6
27/03:30am 17.9 - 18.1 - - SSE 28 30 15 16 1009.5 - 4.6
27/03:20am 17.9 - 18.1 - - SE 28 30 15 16 1009.8 - 4.6
27/03:10am 17.9 - 18.1 - - SE 30 32 16 17 1009.7 - 4.6
27/03:00am 18.2 - 18.3 - - SE 24 30 13 16 1009.7 - 4.6
27/02:50am 18.9 - 19.1 - - SE 17 19 9 10 1010.0 - 4.6
27/02:40am 18.9 - 19.1 - - SE 17 19 9 10 1010.0 - 4.6
27/02:30am 18.9 - 19.0 - - SE 13 15 7 8 1010.0 - 4.6
27/02:20am 18.8 - 19.0 - - SE 13 13 7 7 1010.1 - 4.6
27/02:10am 18.9 - 19.1 - - SE 15 15 8 8 1010.0 - 4.6
27/02:00am 18.9 - 19.0 - - SE 13 15 7 8 1010.0 - 4.6
27/01:50am 18.8 - 19.0 - - ESE 11 13 6 7 1010.0 - 4.6
27/01:40am 19.0 - 19.2 - - ESE 11 13 6 7 1010.0 - 4.6
27/01:30am 19.0 - 19.2 - - SE 11 11 6 6 1010.0 - 4.6
27/01:20am 19.1 - 19.3 - - ESE 7 11 4 6 1010.0 - 4.6
27/01:10am 19.1 - 19.3 - - ESE 7 9 4 5 1010.0 - 4.6
27/01:00am 19.1 - 19.3 - - ESE 7 7 4 4 1009.9 - 4.6
27/12:50am 19.2 - 19.4 - - SE 4 6 2 3 1010.1 - 4.6
27/12:40am 19.3 - 19.4 - - - 4 6 2 3 1010.2 - 4.6
27/12:30am 19.3 - 19.5 - - CALM 0 0 0 0 1010.2 - 4.6
27/12:20am 19.4 - 19.6 - - ENE 2 4 1 2 1010.2 - 4.6
27/12:10am 19.3 - 19.5 - - CALM 0 4 0 2 1010.2 - 4.6
27/12:00am 19.2 - 19.4 - - WNW 4 6 2 3 1010.2 - 4.6
 
Date/Time
EDT
Temp
°C
App
Temp
°C
Dew
Point
°C
Rel
Hum
%
Delta-T
°C
Wind Press
QNH
hPa
Press
MSL
hPa
Rain since
9am
mm
Dir  Spd
km/h
Gust
km/h
Spd
kts
Gust
kts
26/11:50pm 19.2 - 19.4 - - NW 4 6 2 3 1010.2 - 4.6
26/11:40pm 19.2 - 19.4 - - WNW 7 9 4 5 1010.0 - 4.6
26/11:30pm 19.2 - 19.3 - - W 9 9 5 5 1010.1 - 4.6
26/11:20pm 19.2 - 19.4 - - NW 7 9 4 5 1010.0 - 4.6
26/11:10pm 19.1 - 19.3 - - NW 7 9 4 5 1010.0 - 4.4
26/11:00pm 19.1 - 19.3 - - NW 6 6 3 3 1009.9 - 4.4
26/10:50pm 19.1 - 19.3 - - NW 6 7 3 4 1009.9 - 4.4
26/10:40pm 19.1 - 19.3 - - NNW 9 9 5 5 1009.8 - 4.4
26/10:30pm 19.1 - 19.3 - - NNW 7 9 4 5 1009.8 - 4.4
26/10:20pm 19.1 - 19.3 - - NW 7 7 4 4 1009.9 - 4.4
26/10:10pm 19.0 - 19.2 - - NNW 7 9 4 5 1009.8 - 4.4
26/10:00pm 19.1 - 19.3 - - NW 7 9 4 5 1009.8 - 4.4
26/09:50pm 19.1 - 19.3 - - WNW 7 7 4 4 1009.8 - 4.4
26/09:40pm 19.1 - 19.3 - - W 6 7 3 4 1009.7 - 4.4
26/09:30pm 19.1 - 19.3 - - WNW 6 7 3 4 1009.6 - 4.0
26/09:20pm 19.1 - 19.3 - - W 6 9 3 5 1009.4 - 3.8
26/09:10pm 19.2 - 19.3 - - NW 7 7 4 4 1009.3 - 3.6
26/09:00pm 19.1 - 19.3 - - WNW 11 13 6 7 1009.2 - 3.4
26/08:50pm 19.1 - 19.3 - - WNW 13 17 7 9 1009.1 - 3.2
26/08:40pm 19.2 - 19.3 - - NW 15 19 8 10 1009.0 - 3.0
26/08:30pm 19.1 - 19.3 - - NW 17 20 9 11 1008.8 - 2.6
26/08:20pm 19.1 - 19.3 - - NW 19 20 10 11 1008.7 - 2.0
26/08:10pm 19.0 - 19.2 - - NW 19 20 10 11 1008.6 - 2.0
26/08:00pm 19.1 - 19.4 - - NW 20 22 11 12 1008.4 - 1.8
26/07:50pm 19.2 - 19.4 - - NW 24 28 13 15 1008.2 - 1.4
26/07:40pm 19.5 18.4 19.4 99 0.1 NW 24 26 13 14 1008.0 - 0.8
26/07:30pm 19.9 19.0 19.1 95 0.5 NW 22 26 12 14 1007.8 - 0.6
26/07:20pm 20.0 19.0 18.9 93 0.7 NW 22 26 12 14 1007.7 - 0.6
26/07:10pm 20.3 19.4 19.0 92 0.8 NW 22 28 12 15 1007.6 - 0.6
26/07:00pm 20.5 19.5 18.9 90 1.0 NW 22 24 12 13 1007.5 - 0.6
26/06:50pm 20.9 19.9 18.8 88 1.4 NW 22 26 12 14 1007.3 - 0.6
26/06:40pm 21.1 19.9 18.4 84 1.7 NW 22 26 12 14 1007.1 - 0.6
26/06:30pm 21.2 20.3 18.3 83 1.9 NW 20 22 11 12 1007.0 - 0.6
26/06:20pm 21.3 19.6 18.2 82 2.0 NW 24 28 13 15 1007.0 - 0.6
26/06:10pm 21.4 20.0 17.9 80 2.2 WNW 22 26 12 14 1007.1 - 0.6
26/06:00pm 21.5 18.9 17.8 79 2.4 WNW 28 32 15 17 1007.0 - 0.6
26/05:50pm 21.5 19.7 17.8 79 2.4 WNW 24 28 13 15 1007.0 - 0.6
26/05:40pm 21.5 18.9 17.9 80 2.3 WNW 28 33 15 18 1007.0 - 0.6
26/05:30pm 21.5 19.6 17.7 79 2.4 WNW 24 30 13 16 1006.8 - 0.4
26/05:20pm 21.5 19.8 18.0 80 2.2 WNW 24 26 13 14 1006.9 - 0.4
26/05:10pm 21.4 20.1 18.1 81 2.1 WNW 22 24 12 13 1006.7 - 0.4
26/05:00pm 21.3 19.4 17.7 80 2.3 W 24 30 13 16 1006.6 - 0.4
26/04:50pm 21.0 20.1 18.3 84 1.7 W 20 30 11 16 1006.7 - 0.4
26/04:40pm 20.8 16.7 17.4 81 2.2 W 35 39 19 21 1006.7 - 0.4
26/04:30pm 21.0 17.5 17.5 80 2.2 W 32 35 17 19 1006.5 - 0.4
26/04:20pm 21.7 17.1 17.2 75 2.9 W 37 46 20 25 1006.3 - 0.0
26/04:10pm 21.9 18.5 16.8 73 3.2 W 30 35 16 19 1006.3 - 0.0
26/04:00pm 22.2 19.3 16.2 69 3.7 W 26 32 14 17 1006.5 - 0.0
26/03:50pm 22.1 19.3 16.3 69 3.6 W 26 30 14 16 1006.1 - 0.0
26/03:40pm 22.5 18.0 16.4 68 3.8 W 35 46 19 25 1006.3 - 0.0
26/03:30pm 23.1 16.2 15.7 63 4.6 W 46 52 25 28 1006.0 - 0.0
26/03:20pm 23.6 17.4 15.8 61 4.9 W 43 50 23 27 1006.5 - 0.0
26/03:10pm 24.2 17.5 15.2 57 5.6 W 44 52 24 28 1006.4 - 0.0
26/03:00pm 24.4 17.9 15.0 55 5.8 W 43 46 23 25 1006.5 - 0.0
26/02:50pm 24.7 18.0 15.0 54 6.0 W 44 50 24 27 1006.7 - 0.0
26/02:40pm 25.2 19.1 15.2 54 6.2 W 41 50 22 27 1006.4 - 0.0
26/02:30pm 25.8 19.6 14.8 50 6.8 WNW 41 48 22 26 1006.6 - 0.0
26/02:20pm 25.3 19.3 14.4 50 6.7 WNW 39 46 21 25 1006.2 - 0.0
26/02:10pm 25.5 19.5 14.3 50 6.9 WNW 39 52 21 28 1006.6 - 0.0
26/02:00pm 25.4 18.4 13.7 48 7.1 WNW 43 46 23 25 1006.3 - 0.0
26/01:50pm 25.1 19.2 13.5 48 7.0 WNW 37 43 20 23 1006.2 - 0.0
26/01:40pm 25.4 19.3 13.0 46 7.4 WNW 37 44 20 24 1006.3 - 0.0
26/01:30pm 25.5 18.3 13.0 46 7.5 WNW 43 52 23 28 1006.0 - 0.0
26/01:20pm 26.3 20.1 12.8 43 8.1 WNW 37 46 20 25 1006.4 - 0.0
26/01:10pm 26.6 20.3 12.4 41 8.5 WNW 37 46 20 25 1006.3 - 0.0
26/01:00pm 26.4 18.8 11.9 40 8.6 WNW 43 48 23 26 1006.3 - 0.0
26/12:50pm 26.5 20.4 11.9 40 8.7 WNW 35 39 19 21 1006.2 - 0.0
26/12:40pm 26.4 20.6 11.6 39 8.7 WNW 33 41 18 22 1006.2 - 0.0
26/12:30pm 26.2 19.2 11.3 39 8.7 NW 39 46 21 25 1006.3 - 0.0
26/12:20pm 25.8 18.7 10.9 39 8.7 NW 39 43 21 23 1006.3 - 0.0
26/12:10pm 25.8 18.0 11.1 39 8.6 WNW 43 50 23 27 1006.5 - 0.0
26/12:00pm 26.2 19.9 11.0 38 8.9 NW 35 41 19 22 1006.3 - 0.0
26/11:50am 26.6 21.2 11.0 37 9.1 NW 30 35 16 19 1006.1 - 0.0
26/11:40am 26.9 21.8 10.7 36 9.4 NW 28 33 15 18 1006.3 - 0.0
26/11:30am 26.5 20.7 10.7 37 9.2 NW 32 37 17 20 1006.3 - 0.0
26/11:20am 26.5 20.9 10.2 36 9.4 WNW 30 33 16 18 1006.7 - 0.0
26/11:10am 26.1 20.5 10.3 37 9.1 WNW 30 37 16 20 1006.6 - 0.0
26/11:00am 26.1 19.6 10.4 37 9.1 WNW 35 46 19 25 1006.8 - 0.0
26/10:50am 26.3 18.1 10.4 36 9.2 WNW 44 50 24 27 1006.9 - 0.0
26/10:40am 26.6 19.3 10.3 36 9.4 NW 39 48 21 26 1006.7 - 0.0
26/10:30am 26.5 20.2 11.1 38 9.0 NW 35 46 19 25 1006.6 - 0.0
26/10:20am 25.4 18.3 10.9 40 8.4 NW 39 48 21 26 1006.6 - 0.0
26/10:10am 25.4 17.9 10.8 40 8.5 NW 41 48 22 26 1006.5 - 0.0
26/10:00am 25.4 18.3 10.8 40 8.5 NW 39 48 21 26 1006.6 - 0.0
26/09:50am 25.2 16.8 10.9 40 8.3 NW 46 54 25 29 1006.6 - 0.0
26/09:40am 25.3 17.4 10.7 40 8.4 NW 43 46 23 25 1006.5 - 0.0
26/09:30am 25.6 17.1 10.8 39 8.6 NW 46 52 25 28 1006.6 - 0.0
26/09:20am 25.7 17.2 10.7 39 8.7 NW 46 52 25 28 1006.6 - 0.0
26/09:10am 25.9 18.4 10.7 38 8.8 NW 41 48 22 26 1006.5 - 0.0
26/09:00am 25.4 18.3 10.9 40 8.4 NW 39 50 21 27 1006.4 - 0.0
26/08:50am 24.8 18.1 10.9 41 8.0 NW 37 43 20 23 1006.7 - 0.0
26/08:40am 24.7 16.8 10.7 41 8.1 NW 43 50 23 27 1006.4 - 0.0
26/08:30am 24.7 17.2 10.7 41 8.1 NW 41 48 22 26 1006.7 - 0.0
26/08:20am 24.6 18.6 10.8 42 8.0 NW 33 37 18 20 1006.7 - 0.0
26/08:10am 24.2 18.1 10.6 42 7.8 NNW 33 37 18 20 1006.4 - 0.0
26/08:00am 23.6 17.8 10.7 44 7.4 NNW 32 33 17 18 1006.2 - 0.0
26/07:50am 23.4 17.4 10.7 44 7.3 NNW 33 39 18 21 1006.4 - 0.0
26/07:40am 23.6 16.4 10.5 43 7.5 NW 39 43 21 23 1006.3 - 0.0
26/07:30am 23.7 16.5 10.5 43 7.6 NW 39 43 21 23 1006.3 - 0.0
26/07:20am 23.6 16.3 10.3 43 7.6 NW 39 43 21 23 1006.3 - 0.0
26/07:10am 23.6 15.9 10.2 42 7.6 NW 41 44 22 24 1006.1 - 0.0
26/07:00am 23.5 16.1 10.0 42 7.6 NW 39 44 21 24 1006.1 - 0.0
26/06:50am 23.3 16.7 9.9 42 7.6 NW 35 39 19 21 1006.2 - 0.0
26/06:40am 23.0 16.9 9.9 43 7.4 NW 32 35 17 19 1006.2 - 0.0
26/06:30am 22.8 17.9 9.8 43 7.3 NW 26 30 14 16 1006.2 - 0.0
26/06:20am 22.8 17.8 9.7 43 7.4 NW 26 30 14 16 1006.1 - 0.0
26/06:10am 22.8 18.2 9.6 43 7.4 NW 24 28 13 15 1005.8 - 0.0
26/06:00am 23.2 18.9 9.5 41 7.7 NW 22 26 12 14 1005.8 - 0.0
26/05:50am 23.2 18.9 9.3 41 7.8 NW 22 24 12 13 1005.7 - 0.0
26/05:40am 23.4 19.1 9.2 40 7.9 NW 22 22 12 12 1005.7 - 0.0
26/05:30am 23.6 18.9 9.1 39 8.1 NW 24 24 13 13 1005.6 - 0.0
26/05:20am 23.8 19.1 9.1 39 8.2 NW 24 28 13 15 1005.6 - 0.0
26/05:10am 24.1 19.7 9.0 38 8.4 NW 22 24 12 13 1005.4 - 0.0
26/05:00am 24.2 19.4 8.8 37 8.6 NW 24 28 13 15 1005.4 - 0.0
26/04:50am 24.1 19.7 8.9 38 8.5 NW 22 24 12 13 1005.4 - 0.0
26/04:40am 24.3 19.5 8.9 37 8.6 NW 24 26 13 14 1005.4 - 0.0
26/04:30am 24.5 19.3 8.7 36 8.8 NW 26 28 14 15 1005.4 - 0.0
26/04:20am 24.6 19.4 8.8 36 8.8 NW 26 28 14 15 1005.4 - 0.0
26/04:10am 24.7 19.5 8.8 36 8.9 NW 26 28 14 15 1005.6 - 0.0
26/04:00am 24.6 19.4 8.8 36 8.8 NW 26 26 14 14 1005.6 - 0.0
26/03:50am 24.7 19.5 8.8 36 8.9 NW 26 28 14 15 1005.6 - 0.0
26/03:40am 24.9 19.3 8.7 35 9.0 NW 28 30 15 16 1005.7 - 0.0
26/03:30am 24.8 19.9 8.6 35 9.0 NW 24 26 13 14 1005.8 - 0.0
26/03:20am 24.9 19.7 8.8 36 9.0 NW 26 28 14 15 1005.9 - 0.0
26/03:10am 25.1 19.9 8.9 35 9.1 NW 26 28 14 15 1006.0 - 0.0
26/03:00am 25.2 19.6 8.8 35 9.2 NW 28 30 15 16 1006.1 - 0.0
26/02:50am 25.3 20.1 8.8 35 9.2 NW 26 30 14 16 1006.3 - 0.0
26/02:40am 25.2 20.4 8.9 35 9.1 NW 24 26 13 14 1006.4 - 0.0
26/02:30am 25.4 20.2 8.9 35 9.3 NW 26 26 14 14 1006.4 - 0.0

Other formats

Comma delimited format used in spreadsheet applications
http://www.bom.gov.au/fwo/IDN60801/IDN60801.99763.axf

JavaScript Object Notation format (JSON) in row-major order
http://www.bom.gov.au/fwo/IDN60801/IDN60801.99763.json

Data quality

Most of these data are generated automatically and are frequently updated. Quality checks on data are not normally performed. It is possible for incorrect values to appear. Refer to information at About Latest Weather Observations and please check the disclaimer before using these data.